Terminal Aerodrome Forecast
Issued by NWS Grand Rapids, MI

Home | Current Version | Previous Version | Text Only | Print | Product List | Glossary On
Versions: 1 2 3 4 5 6 7 8 9 10 11 12 13 14 15 16 17 18 19 20 21
940
FTUS43 KGRR 062023 AAC
TAFGRR
TAF AMD
KGRR 062023Z 0620/0718 24015KT P6SM BKN025
     FM070000 23008KT P6SM BKN035
     FM071300 21016KT P6SM VCSH BKN070=

USA.gov is the U.S. government's official web portal to all federal, state and local government web resources and services.